createdAt,value
2022-09-28T00:01:45.779Z,52.56
2022-09-28T00:05:42.847Z,52.55
2022-09-28T00:09:39.765Z,52.63
2022-09-28T00:13:36.774Z,51.96
2022-09-28T00:17:34.127Z,52.19
2022-09-28T00:21:35.743Z,52.27
2022-09-28T00:25:33.237Z,52.06
2022-09-28T00:29:32.515Z,52.93
2022-09-28T00:33:29.457Z,52.53
2022-09-28T00:37:26.709Z,52.62
2022-09-28T00:41:27.199Z,52.89
2022-09-28T00:45:26.955Z,52.92
2022-09-28T00:49:41.968Z,52.51
2022-09-28T00:53:44.101Z,52.41
2022-09-28T00:57:49.016Z,52.85
2022-09-28T01:01:46.033Z,52.91
2022-09-28T01:05:47.055Z,53.15
2022-09-28T01:09:46.162Z,53.70
2022-09-28T01:13:44.835Z,53.86
2022-09-28T01:18:33.309Z,53.71
2022-09-28T01:23:19.384Z,53.84
2022-09-28T01:27:36.431Z,54.14
2022-09-28T01:31:36.532Z,54.94
2022-09-28T01:35:57.554Z,54.57
2022-09-28T01:39:57.765Z,54.34
2022-09-28T01:43:59.610Z,54.09
2022-09-28T01:48:05.815Z,54.30
2022-09-28T01:52:36.212Z,54.18
2022-09-28T01:56:55.869Z,54.45
2022-09-28T02:01:05.309Z,54.13
2022-09-28T02:05:18.574Z,54.20
2022-09-28T02:09:33.014Z,54.47
2022-09-28T02:13:38.821Z,54.40
2022-09-28T02:17:35.836Z,55.31
2022-09-28T02:21:58.276Z,55.30
2022-09-28T02:26:12.155Z,55.12
2022-09-28T02:30:10.368Z,54.50
2022-09-28T02:34:09.427Z,54.16
2022-09-28T02:38:06.438Z,55.33
2022-09-28T02:42:21.636Z,54.67
2022-09-28T02:46:30.102Z,53.89
2022-09-28T02:51:00.863Z,55.10
2022-09-28T02:55:15.778Z,54.96
2022-09-28T02:59:35.317Z,55.24
2022-09-28T03:03:55.052Z,55.40
2022-09-28T03:08:10.575Z,55.59
2022-09-28T03:12:16.534Z,55.33
2022-09-28T03:16:18.269Z,55.29
2022-09-28T03:20:18.210Z,54.96
2022-09-28T03:24:15.262Z,54.80
2022-09-28T03:28:12.243Z,55.32
2022-09-28T03:32:10.995Z,55.04
2022-09-28T03:36:09.609Z,54.76
2022-09-28T03:40:08.060Z,54.44
2022-09-28T03:44:05.141Z,54.45
2022-09-28T03:48:03.245Z,54.74
2022-09-28T03:52:00.725Z,55.29
2022-09-28T03:56:13.551Z,56.79
2022-09-28T04:00:12.888Z,57.46
2022-09-28T04:04:13.545Z,56.60
2022-09-28T04:08:10.557Z,56.67
2022-09-28T04:12:07.583Z,56.48
2022-09-28T04:16:05.519Z,55.90
2022-09-28T04:20:05.009Z,55.82
2022-09-28T04:24:11.553Z,56.35
2022-09-28T04:28:28.055Z,56.13
2022-09-28T04:32:25.886Z,55.87
2022-09-28T04:36:25.124Z,55.61
2022-09-28T04:40:22.296Z,55.37
2022-09-28T04:44:19.853Z,55.26
2022-09-28T04:48:17.992Z,55.53
2022-09-28T04:52:37.786Z,55.64
2022-09-28T04:56:34.810Z,55.61
2022-09-28T05:00:35.259Z,56.59
2022-09-28T05:04:56.574Z,56.97
2022-09-28T05:09:16.815Z,57.73
2022-09-28T05:13:14.512Z,58.06
2022-09-28T05:17:11.604Z,58.01
2022-09-28T05:21:28.078Z,57.53
2022-09-28T05:25:25.461Z,57.84
2022-09-28T05:29:37.154Z,57.20
2022-09-28T05:33:53.641Z,58.24
2022-09-28T05:37:51.093Z,58.43
2022-09-28T05:41:48.278Z,57.56
2022-09-28T05:45:45.666Z,57.62
2022-09-28T05:49:42.752Z,57.55
2022-09-28T05:53:41.542Z,57.49
2022-09-28T05:57:39.064Z,57.61
2022-09-28T06:01:37.127Z,57.58
2022-09-28T06:05:39.615Z,57.71
2022-09-28T06:09:36.689Z,58.19
2022-09-28T06:14:02.847Z,58.43
2022-09-28T06:18:05.334Z,58.07
2022-09-28T06:22:08.314Z,58.16
2022-09-28T06:26:13.682Z,57.98
2022-09-28T06:30:11.325Z,57.92
2022-09-28T06:34:11.685Z,57.71
2022-09-28T06:38:09.414Z,57.39
2022-09-28T06:42:07.387Z,57.20
2022-09-28T06:46:33.811Z,56.31
2022-09-28T06:50:50.879Z,56.80
2022-09-28T06:54:56.589Z,57.25
2022-09-28T06:59:00.358Z,57.85
2022-09-28T07:02:58.500Z,58.20
2022-09-28T07:07:26.115Z,57.53
2022-09-28T07:11:46.737Z,56.56
2022-09-28T07:16:02.101Z,56.78
2022-09-28T07:20:07.123Z,56.53
2022-09-28T07:24:09.344Z,56.72
2022-09-28T07:28:25.463Z,56.90
2022-09-28T07:32:52.204Z,57.17
2022-09-28T07:36:58.972Z,56.10
2022-09-28T07:41:12.233Z,55.22
2022-09-28T07:45:24.586Z,55.30
2022-09-28T07:49:23.031Z,55.96
2022-09-28T07:53:43.939Z,56.12
2022-09-28T07:58:01.197Z,55.55
2022-09-28T08:02:26.914Z,54.98
2022-09-28T08:06:24.150Z,54.73
2022-09-28T08:10:21.149Z,53.55
2022-09-28T08:14:47.701Z,54.36
2022-09-28T08:19:03.145Z,54.64
2022-09-28T08:23:09.310Z,53.95
2022-09-28T08:27:08.757Z,53.89
2022-09-28T08:31:07.421Z,53.87
2022-09-28T08:35:26.259Z,52.73
2022-09-28T08:39:40.581Z,53.50
2022-09-28T08:44:25.770Z,52.96
2022-09-28T08:49:20.734Z,50.56
2022-09-28T08:54:06.994Z,50.65
2022-09-28T08:58:32.985Z,51.06
2022-09-28T09:02:34.788Z,49.79
2022-09-28T09:07:18.430Z,50.38
2022-09-28T09:11:44.454Z,49.85
2022-09-28T09:16:06.173Z,48.40
2022-09-28T09:21:06.724Z,49.09
2022-09-28T09:25:19.371Z,47.96
2022-09-28T09:29:20.842Z,47.99
2022-09-28T09:33:40.281Z,44.82
2022-09-28T09:38:41.471Z,41.96
2022-09-28T09:43:08.413Z,43.62
2022-09-28T09:47:21.055Z,41.77
2022-09-28T09:52:01.008Z,43.15
2022-09-28T09:56:12.737Z,43.69
2022-09-28T10:00:48.062Z,43.13
2022-09-28T10:05:06.872Z,41.21
2022-09-28T10:09:13.792Z,40.94
2022-09-28T10:13:11.458Z,41.16
2022-09-28T10:17:16.437Z,41.43
2022-09-28T10:21:37.609Z,39.62
2022-09-28T10:26:26.036Z,38.77
2022-09-28T10:30:25.712Z,38.07
2022-09-28T10:34:29.263Z,38.00
2022-09-28T10:38:31.061Z,38.70
2022-09-28T10:42:37.041Z,38.04
2022-09-28T10:46:38.998Z,38.90
2022-09-28T10:50:42.479Z,37.64
2022-09-28T10:54:53.773Z,36.55
2022-09-28T10:58:52.378Z,36.88
2022-09-28T11:03:25.225Z,39.56
2022-09-28T11:07:30.773Z,40.28
2022-09-28T11:11:29.729Z,40.31
2022-09-28T11:15:33.947Z,39.47
2022-09-28T11:19:35.771Z,40.91
2022-09-28T11:23:32.784Z,40.70
2022-09-28T11:27:41.698Z,40.93
2022-09-28T11:31:39.850Z,39.33
2022-09-28T11:35:50.587Z,35.48
2022-09-28T11:40:43.671Z,31.87
2022-09-28T11:44:49.455Z,28.08
2022-09-28T11:48:56.710Z,27.59
2022-09-28T11:53:18.171Z,26.72
2022-09-28T11:57:25.235Z,25.94
2022-09-28T12:01:40.770Z,28.47
2022-09-28T12:05:49.935Z,30.73
2022-09-28T12:10:08.302Z,30.37
2022-09-28T12:14:18.632Z,30.37
2022-09-28T12:18:26.988Z,29.45
2022-09-28T12:22:43.102Z,29.46
2022-09-28T12:26:55.088Z,29.06
2022-09-28T12:30:54.750Z,31.00
2022-09-28T12:34:51.778Z,33.37
2022-09-28T12:39:19.150Z,34.68
2022-09-28T12:43:25.298Z,34.18
2022-09-28T12:48:08.219Z,32.01
2022-09-28T12:52:31.994Z,31.86
2022-09-28T12:57:29.980Z,33.08
2022-09-28T13:01:45.458Z,32.53
2022-09-28T13:06:21.121Z,32.86
2022-09-28T13:10:36.178Z,32.64
2022-09-28T13:15:23.621Z,33.73
2022-09-28T13:19:50.231Z,34.42
2022-09-28T13:23:51.472Z,33.10
2022-09-28T13:28:01.660Z,32.30
2022-09-28T13:32:03.443Z,31.41
2022-09-28T13:36:00.653Z,31.11
2022-09-28T13:39:59.750Z,30.58
2022-09-28T13:44:11.646Z,31.59
2022-09-28T13:48:20.668Z,32.60
2022-09-28T13:52:29.538Z,33.09
2022-09-28T13:56:57.436Z,33.43
2022-09-28T14:01:21.645Z,33.50
2022-09-28T14:05:21.746Z,33.91
2022-09-28T14:09:43.987Z,33.17
2022-09-28T14:13:43.976Z,32.54
2022-09-28T14:17:43.858Z,32.32
2022-09-28T14:21:59.507Z,32.50
2022-09-28T14:26:11.680Z,33.16
2022-09-28T14:30:11.593Z,33.06
2022-09-28T14:34:32.442Z,33.87
2022-09-28T14:38:55.412Z,34.54
2022-09-28T14:43:24.378Z,35.71
2022-09-28T14:47:35.423Z,35.60
2022-09-28T14:51:35.546Z,35.02
2022-09-28T14:55:45.837Z,35.48
2022-09-28T14:59:46.315Z,35.16
2022-09-28T15:03:48.784Z,35.04
2022-09-28T15:07:51.947Z,36.28
2022-09-28T15:11:49.024Z,37.28
2022-09-28T15:15:52.126Z,37.54
2022-09-28T15:19:58.364Z,37.17
2022-09-28T15:23:55.315Z,37.05
2022-09-28T15:28:06.599Z,37.59
2022-09-28T15:32:04.156Z,37.50
2022-09-28T15:36:08.343Z,37.55
2022-09-28T15:40:17.652Z,38.13
2022-09-28T15:44:30.063Z,38.61
2022-09-28T15:48:45.881Z,39.49
2022-09-28T15:53:02.595Z,40.37
2022-09-28T15:57:02.882Z,41.54
2022-09-28T16:01:36.733Z,41.95
2022-09-28T16:05:57.325Z,41.95
2022-09-28T16:10:05.277Z,42.18
2022-09-28T16:14:24.221Z,42.41
2022-09-28T16:18:23.620Z,42.05
2022-09-28T16:22:26.748Z,42.29
2022-09-28T16:26:33.623Z,42.62
2022-09-28T16:30:34.712Z,43.35
2022-09-28T16:34:31.683Z,43.44
2022-09-28T16:38:28.912Z,44.47
2022-09-28T16:42:28.384Z,45.42
2022-09-28T16:46:37.619Z,46.66
2022-09-28T16:50:34.754Z,46.16
2022-09-28T16:54:50.135Z,47.68
2022-09-28T16:58:49.288Z,47.07
2022-09-28T17:02:50.905Z,47.15
2022-09-28T17:06:47.991Z,47.13
2022-09-28T17:11:24.209Z,47.60
2022-09-28T17:15:21.918Z,47.99
2022-09-28T17:19:23.884Z,47.88
2022-09-28T17:23:21.387Z,48.36
2022-09-28T17:27:21.071Z,48.47
2022-09-28T17:31:18.123Z,48.53
2022-09-28T17:35:25.910Z,48.40
2022-09-28T17:39:25.096Z,48.46
2022-09-28T17:43:22.491Z,48.10
2022-09-28T17:47:19.484Z,48.33
2022-09-28T17:51:19.067Z,48.50
2022-09-28T17:55:16.045Z,48.35
2022-09-28T17:59:17.466Z,47.79
2022-09-28T18:03:21.615Z,47.91
2022-09-28T18:07:18.880Z,47.96
2022-09-28T18:11:17.440Z,47.85
2022-09-28T18:15:15.362Z,48.09
2022-09-28T18:19:12.564Z,48.58
2022-09-28T18:23:09.577Z,48.42
2022-09-28T18:27:06.570Z,48.88
2022-09-28T18:31:13.513Z,49.31
2022-09-28T18:35:11.255Z,50.07
2022-09-28T18:39:08.327Z,50.19
2022-09-28T18:43:05.300Z,50.79
2022-09-28T18:47:02.509Z,51.27
2022-09-28T18:50:59.484Z,50.92
2022-09-28T18:54:56.607Z,50.93
2022-09-28T18:58:53.628Z,51.13
2022-09-28T19:02:50.843Z,51.15
2022-09-28T19:06:51.888Z,51.21
2022-09-28T19:10:49.259Z,51.71
2022-09-28T19:14:46.468Z,52.25
2022-09-28T19:18:44.056Z,51.77
2022-09-28T19:22:41.157Z,51.79
2022-09-28T19:26:38.155Z,53.22
2022-09-28T19:30:35.274Z,52.69
2022-09-28T19:34:32.297Z,52.56
2022-09-28T19:38:32.389Z,52.16
2022-09-28T19:42:29.364Z,52.47
2022-09-28T19:46:27.059Z,52.37
2022-09-28T19:50:24.423Z,52.23
2022-09-28T19:54:22.325Z,52.10
2022-09-28T19:58:23.375Z,52.72
2022-09-28T20:02:21.311Z,52.95
2022-09-28T20:06:18.298Z,53.50
2022-09-28T20:10:15.412Z,53.63
2022-09-28T20:14:18.543Z,53.40
2022-09-28T20:18:16.472Z,53.99
2022-09-28T20:22:13.462Z,53.74
2022-09-28T20:26:11.820Z,53.78
2022-09-28T20:30:09.907Z,53.79
2022-09-28T20:34:07.868Z,54.04
2022-09-28T20:38:09.110Z,54.00
2022-09-28T20:42:06.587Z,54.43
2022-09-28T20:46:07.011Z,54.12
2022-09-28T20:50:06.698Z,54.34
2022-09-28T20:54:03.729Z,53.81
2022-09-28T20:58:04.811Z,53.93
2022-09-28T21:02:01.926Z,54.42
2022-09-28T21:05:59.141Z,53.83
2022-09-28T21:09:56.113Z,54.16
2022-09-28T21:14:00.624Z,54.25
2022-09-28T21:17:57.593Z,54.54
2022-09-28T21:21:54.721Z,53.94
2022-09-28T21:26:24.649Z,54.05
2022-09-28T21:30:21.688Z,54.16
2022-09-28T21:34:21.121Z,54.49
2022-09-28T21:38:18.184Z,54.52
2022-09-28T21:42:15.185Z,54.90
2022-09-28T21:46:12.243Z,54.51
2022-09-28T21:50:09.633Z,54.60
2022-09-28T21:54:06.946Z,54.35
2022-09-28T21:58:03.898Z,54.17
2022-09-28T22:02:00.887Z,54.34
2022-09-28T22:05:58.711Z,54.55
2022-09-28T22:09:55.662Z,54.79
2022-09-28T22:13:56.170Z,55.05
2022-09-28T22:17:53.158Z,55.24
2022-09-28T22:21:50.127Z,55.52
2022-09-28T22:25:47.109Z,55.15
2022-09-28T22:29:44.558Z,55.41
2022-09-28T22:33:41.612Z,55.47
2022-09-28T22:37:38.639Z,55.58
2022-09-28T22:41:35.668Z,55.78
2022-09-28T22:45:32.633Z,56.00
2022-09-28T22:49:29.583Z,55.36
2022-09-28T22:53:28.524Z,55.20
2022-09-28T22:57:25.528Z,54.86
2022-09-28T23:01:26.422Z,55.02
2022-09-28T23:05:25.760Z,54.80
2022-09-28T23:09:22.730Z,54.59
2022-09-28T23:13:19.956Z,54.49
2022-09-28T23:17:16.955Z,54.43
2022-09-28T23:21:17.721Z,54.97
2022-09-28T23:25:17.828Z,54.78
2022-09-28T23:29:14.916Z,55.07
2022-09-28T23:33:20.163Z,55.85
2022-09-28T23:37:17.136Z,55.66
2022-09-28T23:41:14.199Z,55.38
2022-09-28T23:45:11.596Z,55.23
2022-09-28T23:49:08.572Z,54.75
2022-09-28T23:53:05.764Z,55.15
2022-09-28T23:57:02.775Z,55.93
